sensor_id;sensor_type;location;lat;lon;timestamp;P1;durP1;ratioP1;P2;durP2;ratioP2
57573;SDS011;63722;48.858;21.906;2023-03-05T00:01:58;3.20;;;3.00;;
57573;SDS011;63722;48.858;21.906;2023-03-05T00:04:24;3.53;;;3.33;;
57573;SDS011;63722;48.858;21.906;2023-03-05T00:06:49;3.50;;;3.30;;
57573;SDS011;63722;48.858;21.906;2023-03-05T00:09:14;3.42;;;3.25;;
57573;SDS011;63722;48.858;21.906;2023-03-05T00:11:40;3.40;;;3.20;;
57573;SDS011;63722;48.858;21.906;2023-03-05T00:14:06;2.90;;;2.80;;
57573;SDS011;63722;48.858;21.906;2023-03-05T00:16:31;3.45;;;3.15;;
57573;SDS011;63722;48.858;21.906;2023-03-05T00:18:57;3.50;;;3.30;;
57573;SDS011;63722;48.858;21.906;2023-03-05T00:21:28;3.55;;;3.35;;
57573;SDS011;63722;48.858;21.906;2023-03-05T00:23:56;3.22;;;3.13;;
57573;SDS011;63722;48.858;21.906;2023-03-05T00:26:25;3.25;;;3.05;;
57573;SDS011;63722;48.858;21.906;2023-03-05T00:28:52;3.03;;;2.90;;
57573;SDS011;63722;48.858;21.906;2023-03-05T00:31:20;3.05;;;2.95;;
57573;SDS011;63722;48.858;21.906;2023-03-05T00:33:51;2.80;;;2.70;;
57573;SDS011;63722;48.858;21.906;2023-03-05T00:36:17;3.00;;;2.90;;
57573;SDS011;63722;48.858;21.906;2023-03-05T00:38:43;3.00;;;2.90;;
57573;SDS011;63722;48.858;21.906;2023-03-05T00:41:08;3.10;;;2.90;;
57573;SDS011;63722;48.858;21.906;2023-03-05T00:43:34;3.45;;;3.33;;
57573;SDS011;63722;48.858;21.906;2023-03-05T00:45:59;3.05;;;2.95;;
57573;SDS011;63722;48.858;21.906;2023-03-05T00:48:24;2.78;;;2.67;;
57573;SDS011;63722;48.858;21.906;2023-03-05T00:50:50;3.17;;;2.97;;
57573;SDS011;63722;48.858;21.906;2023-03-05T00:53:15;3.30;;;3.10;;
57573;SDS011;63722;48.858;21.906;2023-03-05T00:55:41;3.50;;;3.30;;
57573;SDS011;63722;48.858;21.906;2023-03-05T00:58:07;2.60;;;2.50;;
57573;SDS011;63722;48.858;21.906;2023-03-05T01:00:32;3.15;;;3.03;;
57573;SDS011;63722;48.858;21.906;2023-03-05T01:02:57;3.20;;;3.00;;
57573;SDS011;63722;48.858;21.906;2023-03-05T01:05:23;3.17;;;2.97;;
57573;SDS011;63722;48.858;21.906;2023-03-05T01:07:51;2.72;;;2.60;;
57573;SDS011;63722;48.858;21.906;2023-03-05T01:10:17;3.38;;;3.17;;
57573;SDS011;63722;48.858;21.906;2023-03-05T01:12:43;3.05;;;2.90;;
57573;SDS011;63722;48.858;21.906;2023-03-05T01:15:08;3.10;;;3.00;;
57573;SDS011;63722;48.858;21.906;2023-03-05T01:17:34;3.20;;;3.10;;
57573;SDS011;63722;48.858;21.906;2023-03-05T01:19:59;2.92;;;2.83;;
57573;SDS011;63722;48.858;21.906;2023-03-05T01:22:25;3.35;;;3.15;;
57573;SDS011;63722;48.858;21.906;2023-03-05T01:24:50;2.97;;;2.83;;
57573;SDS011;63722;48.858;21.906;2023-03-05T01:27:16;2.70;;;2.60;;
57573;SDS011;63722;48.858;21.906;2023-03-05T01:29:41;3.20;;;3.00;;
57573;SDS011;63722;48.858;21.906;2023-03-05T01:32:06;3.08;;;2.97;;
57573;SDS011;63722;48.858;21.906;2023-03-05T01:34:32;2.78;;;2.67;;
57573;SDS011;63722;48.858;21.906;2023-03-05T01:36:57;2.70;;;2.60;;
57573;SDS011;63722;48.858;21.906;2023-03-05T01:39:23;3.15;;;2.95;;
57573;SDS011;63722;48.858;21.906;2023-03-05T01:41:48;2.85;;;2.75;;
57573;SDS011;63722;48.858;21.906;2023-03-05T01:44:18;2.75;;;2.65;;
57573;SDS011;63722;48.858;21.906;2023-03-05T01:46:45;2.60;;;2.50;;
57573;SDS011;63722;48.858;21.906;2023-03-05T01:51:55;2.80;;;2.70;;
57573;SDS011;63722;48.858;21.906;2023-03-05T01:54:26;2.80;;;2.70;;
57573;SDS011;63722;48.858;21.906;2023-03-05T01:56:55;2.78;;;2.67;;
57573;SDS011;63722;48.858;21.906;2023-03-05T01:59:23;2.88;;;2.78;;
57573;SDS011;63722;48.858;21.906;2023-03-05T02:01:52;2.83;;;2.72;;
57573;SDS011;63722;48.858;21.906;2023-03-05T02:04:20;2.72;;;2.63;;
57573;SDS011;63722;48.858;21.906;2023-03-05T02:06:47;3.03;;;2.92;;
57573;SDS011;63722;48.858;21.906;2023-03-05T02:09:14;2.50;;;2.40;;
57573;SDS011;63722;48.858;21.906;2023-03-05T02:11:39;2.78;;;2.67;;
57573;SDS011;63722;48.858;21.906;2023-03-05T02:14:06;2.53;;;2.42;;
57573;SDS011;63722;48.858;21.906;2023-03-05T02:16:33;3.92;;;2.60;;
57573;SDS011;63722;48.858;21.906;2023-03-05T02:19:02;2.55;;;2.45;;
57573;SDS011;63722;48.858;21.906;2023-03-05T02:21:39;3.13;;;2.92;;
57573;SDS011;63722;48.858;21.906;2023-03-05T02:24:10;2.85;;;2.75;;
57573;SDS011;63722;48.858;21.906;2023-03-05T02:26:37;2.63;;;2.53;;
57573;SDS011;63722;48.858;21.906;2023-03-05T02:29:03;2.45;;;2.35;;
57573;SDS011;63722;48.858;21.906;2023-03-05T02:31:31;3.03;;;2.92;;
57573;SDS011;63722;48.858;21.906;2023-03-05T02:33:57;2.50;;;2.40;;
57573;SDS011;63722;48.858;21.906;2023-03-05T02:36:23;3.00;;;2.90;;
57573;SDS011;63722;48.858;21.906;2023-03-05T02:38:49;2.63;;;2.53;;
57573;SDS011;63722;48.858;21.906;2023-03-05T02:41:14;2.75;;;2.65;;
57573;SDS011;63722;48.858;21.906;2023-03-05T02:43:41;2.78;;;2.67;;
57573;SDS011;63722;48.858;21.906;2023-03-05T02:46:06;2.47;;;2.38;;
57573;SDS011;63722;48.858;21.906;2023-03-05T02:48:32;2.65;;;2.50;;
57573;SDS011;63722;48.858;21.906;2023-03-05T02:50:57;2.67;;;2.58;;
57573;SDS011;63722;48.858;21.906;2023-03-05T02:53:24;2.92;;;2.83;;
57573;SDS011;63722;48.858;21.906;2023-03-05T02:55:50;2.55;;;2.45;;
57573;SDS011;63722;48.858;21.906;2023-03-05T02:58:16;2.55;;;2.45;;
57573;SDS011;63722;48.858;21.906;2023-03-05T03:00:42;2.70;;;2.60;;
57573;SDS011;63722;48.858;21.906;2023-03-05T03:03:10;2.50;;;2.40;;
57573;SDS011;63722;48.858;21.906;2023-03-05T03:05:36;2.80;;;2.70;;
57573;SDS011;63722;48.858;21.906;2023-03-05T03:08:02;2.50;;;2.30;;
57573;SDS011;63722;48.858;21.906;2023-03-05T03:10:27;2.65;;;2.55;;
57573;SDS011;63722;48.858;21.906;2023-03-05T03:12:53;2.88;;;2.28;;
57573;SDS011;63722;48.858;21.906;2023-03-05T03:15:18;3.13;;;2.13;;
57573;SDS011;63722;48.858;21.906;2023-03-05T03:17:44;2.53;;;2.42;;
57573;SDS011;63722;48.858;21.906;2023-03-05T03:20:10;2.70;;;2.60;;
57573;SDS011;63722;48.858;21.906;2023-03-05T03:22:38;2.90;;;2.70;;
57573;SDS011;63722;48.858;21.906;2023-03-05T03:25:04;2.67;;;2.58;;
57573;SDS011;63722;48.858;21.906;2023-03-05T03:27:30;2.60;;;2.40;;
57573;SDS011;63722;48.858;21.906;2023-03-05T03:29:56;2.47;;;2.38;;
57573;SDS011;63722;48.858;21.906;2023-03-05T03:32:26;2.78;;;2.67;;
57573;SDS011;63722;48.858;21.906;2023-03-05T03:34:52;2.40;;;2.30;;
57573;SDS011;63722;48.858;21.906;2023-03-05T03:37:17;2.42;;;2.33;;
57573;SDS011;63722;48.858;21.906;2023-03-05T03:39:43;2.88;;;2.78;;
57573;SDS011;63722;48.858;21.906;2023-03-05T03:42:08;2.70;;;2.60;;
57573;SDS011;63722;48.858;21.906;2023-03-05T03:44:33;2.35;;;2.25;;
57573;SDS011;63722;48.858;21.906;2023-03-05T03:46:59;2.42;;;2.33;;
57573;SDS011;63722;48.858;21.906;2023-03-05T03:49:24;2.50;;;2.40;;
57573;SDS011;63722;48.858;21.906;2023-03-05T03:51:51;2.40;;;2.30;;
57573;SDS011;63722;48.858;21.906;2023-03-05T03:54:18;2.70;;;2.60;;
57573;SDS011;63722;48.858;21.906;2023-03-05T03:56:44;2.83;;;2.72;;
57573;SDS011;63722;48.858;21.906;2023-03-05T03:59:10;2.47;;;2.38;;
57573;SDS011;63722;48.858;21.906;2023-03-05T04:01:36;2.42;;;2.33;;
57573;SDS011;63722;48.858;21.906;2023-03-05T04:04:02;2.47;;;2.38;;
57573;SDS011;63722;48.858;21.906;2023-03-05T04:06:29;2.60;;;2.50;;
57573;SDS011;63722;48.858;21.906;2023-03-05T04:08:55;2.53;;;2.42;;
57573;SDS011;63722;48.858;21.906;2023-03-05T04:11:20;2.22;;;2.13;;
57573;SDS011;63722;48.858;21.906;2023-03-05T04:13:46;2.17;;;2.08;;
57573;SDS011;63722;48.858;21.906;2023-03-05T04:16:12;2.42;;;2.33;;
57573;SDS011;63722;48.858;21.906;2023-03-05T04:18:37;2.33;;;2.22;;
57573;SDS011;63722;48.858;21.906;2023-03-05T04:21:03;2.45;;;2.35;;
57573;SDS011;63722;48.858;21.906;2023-03-05T04:23:29;2.50;;;2.40;;
57573;SDS011;63722;48.858;21.906;2023-03-05T04:25:55;2.40;;;2.30;;
57573;SDS011;63722;48.858;21.906;2023-03-05T04:28:20;2.40;;;2.30;;
57573;SDS011;63722;48.858;21.906;2023-03-05T04:30:45;2.55;;;2.45;;
57573;SDS011;63722;48.858;21.906;2023-03-05T04:33:11;2.25;;;2.15;;
57573;SDS011;63722;48.858;21.906;2023-03-05T04:35:36;2.50;;;2.40;;
57573;SDS011;63722;48.858;21.906;2023-03-05T04:38:02;2.35;;;2.25;;
57573;SDS011;63722;48.858;21.906;2023-03-05T04:40:27;2.65;;;2.55;;
57573;SDS011;63722;48.858;21.906;2023-03-05T04:42:53;2.40;;;2.30;;
57573;SDS011;63722;48.858;21.906;2023-03-05T04:45:18;2.42;;;2.33;;
57573;SDS011;63722;48.858;21.906;2023-03-05T04:47:43;2.50;;;2.40;;
57573;SDS011;63722;48.858;21.906;2023-03-05T04:50:09;2.38;;;2.28;;
57573;SDS011;63722;48.858;21.906;2023-03-05T04:52:40;2.20;;;2.10;;
57573;SDS011;63722;48.858;21.906;2023-03-05T04:55:07;2.20;;;2.10;;
57573;SDS011;63722;48.858;21.906;2023-03-05T04:57:33;2.00;;;1.90;;
57573;SDS011;63722;48.858;21.906;2023-03-05T04:59:59;2.35;;;2.25;;
57573;SDS011;63722;48.858;21.906;2023-03-05T05:02:24;2.20;;;2.10;;
57573;SDS011;63722;48.858;21.906;2023-03-05T05:04:53;2.30;;;2.20;;
57573;SDS011;63722;48.858;21.906;2023-03-05T05:07:18;2.40;;;2.30;;
57573;SDS011;63722;48.858;21.906;2023-03-05T05:09:43;2.30;;;2.20;;
57573;SDS011;63722;48.858;21.906;2023-03-05T05:12:09;2.40;;;2.30;;
57573;SDS011;63722;48.858;21.906;2023-03-05T05:14:34;2.38;;;2.28;;
57573;SDS011;63722;48.858;21.906;2023-03-05T05:17:00;2.30;;;2.20;;
57573;SDS011;63722;48.858;21.906;2023-03-05T05:19:29;2.13;;;2.03;;
57573;SDS011;63722;48.858;21.906;2023-03-05T05:21:55;2.50;;;2.40;;
57573;SDS011;63722;48.858;21.906;2023-03-05T05:24:20;2.30;;;2.20;;
57573;SDS011;63722;48.858;21.906;2023-03-05T05:26:46;2.22;;;2.13;;
57573;SDS011;63722;48.858;21.906;2023-03-05T05:29:11;1.90;;;1.80;;
57573;SDS011;63722;48.858;21.906;2023-03-05T05:31:36;2.10;;;2.00;;
57573;SDS011;63722;48.858;21.906;2023-03-05T05:34:03;2.15;;;2.05;;
57573;SDS011;63722;48.858;21.906;2023-03-05T05:36:28;2.30;;;2.20;;
57573;SDS011;63722;48.858;21.906;2023-03-05T05:38:53;2.03;;;1.92;;
57573;SDS011;63722;48.858;21.906;2023-03-05T05:41:19;2.30;;;2.20;;
57573;SDS011;63722;48.858;21.906;2023-03-05T05:43:44;2.35;;;2.25;;
57573;SDS011;63722;48.858;21.906;2023-03-05T05:46:12;2.08;;;1.98;;
57573;SDS011;63722;48.858;21.906;2023-03-05T05:48:39;2.10;;;2.00;;
57573;SDS011;63722;48.858;21.906;2023-03-05T05:51:07;2.40;;;2.30;;
57573;SDS011;63722;48.858;21.906;2023-03-05T05:53:34;2.30;;;2.20;;
57573;SDS011;63722;48.858;21.906;2023-03-05T05:56:00;2.15;;;2.05;;
57573;SDS011;63722;48.858;21.906;2023-03-05T05:58:27;2.15;;;2.05;;
57573;SDS011;63722;48.858;21.906;2023-03-05T06:00:52;2.17;;;2.08;;
57573;SDS011;63722;48.858;21.906;2023-03-05T06:03:18;2.50;;;2.40;;
57573;SDS011;63722;48.858;21.906;2023-03-05T06:05:43;1.95;;;1.85;;
57573;SDS011;63722;48.858;21.906;2023-03-05T06:08:09;2.55;;;2.45;;
57573;SDS011;63722;48.858;21.906;2023-03-05T06:10:34;2.25;;;2.15;;
57573;SDS011;63722;48.858;21.906;2023-03-05T06:13:00;2.30;;;2.20;;
57573;SDS011;63722;48.858;21.906;2023-03-05T06:15:25;1.77;;;1.70;;
57573;SDS011;63722;48.858;21.906;2023-03-05T06:17:50;2.03;;;1.92;;
57573;SDS011;63722;48.858;21.906;2023-03-05T06:20:16;2.35;;;2.25;;
57573;SDS011;63722;48.858;21.906;2023-03-05T06:22:42;2.00;;;1.90;;
57573;SDS011;63722;48.858;21.906;2023-03-05T06:25:08;2.10;;;2.00;;
57573;SDS011;63722;48.858;21.906;2023-03-05T06:27:34;3.92;;;2.35;;
57573;SDS011;63722;48.858;21.906;2023-03-05T06:30:00;2.65;;;2.10;;
57573;SDS011;63722;48.858;21.906;2023-03-05T06:32:26;2.10;;;2.00;;
57573;SDS011;63722;48.858;21.906;2023-03-05T06:34:51;1.95;;;1.85;;
57573;SDS011;63722;48.858;21.906;2023-03-05T06:37:17;2.30;;;2.20;;
57573;SDS011;63722;48.858;21.906;2023-03-05T06:39:43;2.28;;;2.17;;
57573;SDS011;63722;48.858;21.906;2023-03-05T06:42:08;2.22;;;2.13;;
57573;SDS011;63722;48.858;21.906;2023-03-05T06:44:36;2.10;;;2.00;;
57573;SDS011;63722;48.858;21.906;2023-03-05T06:47:03;2.25;;;2.15;;
57573;SDS011;63722;48.858;21.906;2023-03-05T06:49:29;1.90;;;1.80;;
57573;SDS011;63722;48.858;21.906;2023-03-05T06:51:55;1.83;;;1.73;;
57573;SDS011;63722;48.858;21.906;2023-03-05T06:54:20;2.28;;;2.17;;
57573;SDS011;63722;48.858;21.906;2023-03-05T06:56:45;2.15;;;2.05;;
57573;SDS011;63722;48.858;21.906;2023-03-05T06:59:11;2.35;;;2.25;;
57573;SDS011;63722;48.858;21.906;2023-03-05T07:01:38;2.03;;;1.92;;
57573;SDS011;63722;48.858;21.906;2023-03-05T07:04:03;1.75;;;1.65;;
57573;SDS011;63722;48.858;21.906;2023-03-05T07:06:33;1.85;;;1.75;;
57573;SDS011;63722;48.858;21.906;2023-03-05T07:09:01;1.90;;;1.80;;
57573;SDS011;63722;48.858;21.906;2023-03-05T07:11:27;1.80;;;1.70;;
57573;SDS011;63722;48.858;21.906;2023-03-05T07:13:53;1.95;;;1.85;;
57573;SDS011;63722;48.858;21.906;2023-03-05T07:16:19;1.70;;;1.65;;
57573;SDS011;63722;48.858;21.906;2023-03-05T07:18:49;2.13;;;2.03;;
57573;SDS011;63722;48.858;21.906;2023-03-05T07:21:20;2.22;;;2.13;;
57573;SDS011;63722;48.858;21.906;2023-03-05T07:23:47;2.20;;;2.10;;
57573;SDS011;63722;48.858;21.906;2023-03-05T07:26:13;1.75;;;1.67;;
57573;SDS011;63722;48.858;21.906;2023-03-05T07:28:39;2.08;;;1.98;;
57573;SDS011;63722;48.858;21.906;2023-03-05T07:31:06;1.75;;;1.70;;
57573;SDS011;63722;48.858;21.906;2023-03-05T07:33:35;1.95;;;1.85;;
57573;SDS011;63722;48.858;21.906;2023-03-05T07:36:01;1.92;;;1.83;;
57573;SDS011;63722;48.858;21.906;2023-03-05T07:38:29;1.90;;;1.80;;
57573;SDS011;63722;48.858;21.906;2023-03-05T07:40:55;2.33;;;2.22;;
57573;SDS011;63722;48.858;21.906;2023-03-05T07:43:20;2.05;;;1.95;;
57573;SDS011;63722;48.858;21.906;2023-03-05T07:45:46;2.00;;;1.90;;
57573;SDS011;63722;48.858;21.906;2023-03-05T07:48:12;2.10;;;2.00;;
57573;SDS011;63722;48.858;21.906;2023-03-05T07:50:39;1.73;;;1.65;;
57573;SDS011;63722;48.858;21.906;2023-03-05T07:53:05;2.05;;;1.95;;
57573;SDS011;63722;48.858;21.906;2023-03-05T07:55:31;1.90;;;1.80;;
57573;SDS011;63722;48.858;21.906;2023-03-05T07:57:56;1.83;;;1.73;;
57573;SDS011;63722;48.858;21.906;2023-03-05T08:00:22;1.70;;;1.60;;
57573;SDS011;63722;48.858;21.906;2023-03-05T08:02:47;2.20;;;2.10;;
57573;SDS011;63722;48.858;21.906;2023-03-05T08:05:14;2.25;;;2.15;;
57573;SDS011;63722;48.858;21.906;2023-03-05T08:07:39;1.88;;;1.77;;
57573;SDS011;63722;48.858;21.906;2023-03-05T08:10:05;2.03;;;1.92;;
57573;SDS011;63722;48.858;21.906;2023-03-05T08:12:31;1.90;;;1.80;;
57573;SDS011;63722;48.858;21.906;2023-03-05T08:14:56;1.92;;;1.83;;
57573;SDS011;63722;48.858;21.906;2023-03-05T08:17:22;1.50;;;1.50;;
57573;SDS011;63722;48.858;21.906;2023-03-05T08:19:47;1.95;;;1.85;;
57573;SDS011;63722;48.858;21.906;2023-03-05T08:22:13;1.85;;;1.75;;
57573;SDS011;63722;48.858;21.906;2023-03-05T08:24:40;1.33;;;1.33;;
57573;SDS011;63722;48.858;21.906;2023-03-05T08:27:06;1.30;;;1.30;;
57573;SDS011;63722;48.858;21.906;2023-03-05T08:29:32;1.88;;;1.77;;
57573;SDS011;63722;48.858;21.906;2023-03-05T08:31:57;1.67;;;1.60;;
57573;SDS011;63722;48.858;21.906;2023-03-05T08:34:22;1.75;;;1.65;;
57573;SDS011;63722;48.858;21.906;2023-03-05T08:36:48;2.00;;;1.90;;
57573;SDS011;63722;48.858;21.906;2023-03-05T08:39:14;1.60;;;1.60;;
57573;SDS011;63722;48.858;21.906;2023-03-05T08:41:39;1.73;;;1.63;;
57573;SDS011;63722;48.858;21.906;2023-03-05T08:44:05;1.50;;;1.50;;
57573;SDS011;63722;48.858;21.906;2023-03-05T08:46:31;1.80;;;1.70;;
57573;SDS011;63722;48.858;21.906;2023-03-05T08:48:56;1.70;;;1.60;;
57573;SDS011;63722;48.858;21.906;2023-03-05T08:51:23;1.90;;;1.80;;
57573;SDS011;63722;48.858;21.906;2023-03-05T08:53:50;1.50;;;1.50;;
57573;SDS011;63722;48.858;21.906;2023-03-05T08:56:16;1.67;;;1.58;;
57573;SDS011;63722;48.858;21.906;2023-03-05T08:58:42;1.75;;;1.70;;
57573;SDS011;63722;48.858;21.906;2023-03-05T09:01:08;1.88;;;1.77;;
57573;SDS011;63722;48.858;21.906;2023-03-05T09:03:35;1.83;;;1.73;;
57573;SDS011;63722;48.858;21.906;2023-03-05T09:06:01;1.90;;;1.80;;
57573;SDS011;63722;48.858;21.906;2023-03-05T09:08:29;1.70;;;1.60;;
57573;SDS011;63722;48.858;21.906;2023-03-05T09:10:54;2.03;;;1.80;;
57573;SDS011;63722;48.858;21.906;2023-03-05T09:13:21;1.63;;;1.55;;
57573;SDS011;63722;48.858;21.906;2023-03-05T09:15:52;1.83;;;1.73;;
57573;SDS011;63722;48.858;21.906;2023-03-05T09:18:18;1.38;;;1.38;;
57573;SDS011;63722;48.858;21.906;2023-03-05T09:20:45;1.60;;;1.55;;
57573;SDS011;63722;48.858;21.906;2023-03-05T09:23:11;1.80;;;1.70;;
57573;SDS011;63722;48.858;21.906;2023-03-05T09:25:38;1.80;;;1.70;;
57573;SDS011;63722;48.858;21.906;2023-03-05T09:28:04;1.70;;;1.60;;
57573;SDS011;63722;48.858;21.906;2023-03-05T09:30:29;1.70;;;1.60;;
57573;SDS011;63722;48.858;21.906;2023-03-05T09:32:55;1.58;;;1.48;;
57573;SDS011;63722;48.858;21.906;2023-03-05T09:35:20;1.55;;;1.48;;
57573;SDS011;63722;48.858;21.906;2023-03-05T09:37:46;1.80;;;1.70;;
57573;SDS011;63722;48.858;21.906;2023-03-05T09:40:13;1.80;;;1.70;;
57573;SDS011;63722;48.858;21.906;2023-03-05T09:48:15;1.85;;;1.75;;
57573;SDS011;63722;48.858;21.906;2023-03-05T09:56:15;1.50;;;1.50;;
57573;SDS011;63722;48.858;21.906;2023-03-05T09:58:54;1.77;;;1.67;;
57573;SDS011;63722;48.858;21.906;2023-03-05T10:01:28;1.67;;;1.67;;
57573;SDS011;63722;48.858;21.906;2023-03-05T10:07:16;1.80;;;1.70;;
57573;SDS011;63722;48.858;21.906;2023-03-05T10:09:53;1.55;;;1.45;;
57573;SDS011;63722;48.858;21.906;2023-03-05T10:12:41;1.52;;;1.50;;
57573;SDS011;63722;48.858;21.906;2023-03-05T10:34:45;1.38;;;1.38;;
57573;SDS011;63722;48.858;21.906;2023-03-05T10:44:57;1.48;;;1.48;;
57573;SDS011;63722;48.858;21.906;2023-03-05T10:47:29;1.30;;;1.30;;
57573;SDS011;63722;48.858;21.906;2023-03-05T10:50:32;1.25;;;1.25;;
57573;SDS011;63722;48.858;21.906;2023-03-05T10:53:11;1.25;;;1.25;;
57573;SDS011;63722;48.858;21.906;2023-03-05T10:55:50;1.30;;;1.30;;
57573;SDS011;63722;48.858;21.906;2023-03-05T10:58:20;1.60;;;1.50;;
57573;SDS011;63722;48.858;21.906;2023-03-05T11:03:57;1.50;;;1.48;;
57573;SDS011;63722;48.858;21.906;2023-03-05T11:06:40;1.35;;;1.35;;
57573;SDS011;63722;48.858;21.906;2023-03-05T11:09:26;1.30;;;1.30;;
57573;SDS011;63722;48.858;21.906;2023-03-05T11:14:31;1.60;;;1.50;;
57573;SDS011;63722;48.858;21.906;2023-03-05T11:16:58;1.45;;;1.42;;
57573;SDS011;63722;48.858;21.906;2023-03-05T11:24:35;1.55;;;1.48;;
57573;SDS011;63722;48.858;21.906;2023-03-05T11:27:01;1.30;;;1.30;;
57573;SDS011;63722;48.858;21.906;2023-03-05T11:29:28;1.75;;;1.67;;
57573;SDS011;63722;48.858;21.906;2023-03-05T11:32:13;1.20;;;1.20;;
57573;SDS011;63722;48.858;21.906;2023-03-05T11:34:46;1.50;;;1.50;;
57573;SDS011;63722;48.858;21.906;2023-03-05T11:37:29;1.50;;;1.50;;
57573;SDS011;63722;48.858;21.906;2023-03-05T11:40:14;1.05;;;1.05;;
57573;SDS011;63722;48.858;21.906;2023-03-05T11:42:44;1.40;;;1.40;;
57573;SDS011;63722;48.858;21.906;2023-03-05T11:45:18;1.55;;;1.48;;
57573;SDS011;63722;48.858;21.906;2023-03-05T11:47:47;1.38;;;1.38;;
57573;SDS011;63722;48.858;21.906;2023-03-05T11:52:47;1.38;;;1.38;;
57573;SDS011;63722;48.858;21.906;2023-03-05T11:55:29;1.27;;;1.20;;
57573;SDS011;63722;48.858;21.906;2023-03-05T12:00:32;1.20;;;1.20;;
57573;SDS011;63722;48.858;21.906;2023-03-05T12:03:01;1.33;;;1.33;;
57573;SDS011;63722;48.858;21.906;2023-03-05T12:05:31;1.70;;;1.60;;
57573;SDS011;63722;48.858;21.906;2023-03-05T12:07:59;1.10;;;1.10;;
57573;SDS011;63722;48.858;21.906;2023-03-05T12:10:26;1.30;;;1.30;;
57573;SDS011;63722;48.858;21.906;2023-03-05T12:23:46;1.23;;;1.23;;
57573;SDS011;63722;48.858;21.906;2023-03-05T12:31:58;1.10;;;1.10;;
57573;SDS011;63722;48.858;21.906;2023-03-05T12:39:44;1.25;;;1.25;;
57573;SDS011;63722;48.858;21.906;2023-03-05T12:52:55;1.42;;;1.33;;
57573;SDS011;63722;48.858;21.906;2023-03-05T12:58:32;1.17;;;1.17;;
57573;SDS011;63722;48.858;21.906;2023-03-05T13:08:55;1.10;;;1.10;;
57573;SDS011;63722;48.858;21.906;2023-03-05T13:11:21;1.35;;;1.35;;
57573;SDS011;63722;48.858;21.906;2023-03-05T13:13:48;1.88;;;1.50;;
57573;SDS011;63722;48.858;21.906;2023-03-05T13:16:18;0.98;;;0.98;;
57573;SDS011;63722;48.858;21.906;2023-03-05T13:18:47;1.20;;;1.20;;
57573;SDS011;63722;48.858;21.906;2023-03-05T13:21:14;1.25;;;1.25;;
57573;SDS011;63722;48.858;21.906;2023-03-05T13:23:45;1.35;;;1.25;;
57573;SDS011;63722;48.858;21.906;2023-03-05T13:26:17;1.42;;;1.33;;
57573;SDS011;63722;48.858;21.906;2023-03-05T13:28:44;1.27;;;1.27;;
57573;SDS011;63722;48.858;21.906;2023-03-05T13:31:26;1.23;;;1.13;;
57573;SDS011;63722;48.858;21.906;2023-03-05T13:33:52;1.08;;;1.05;;
57573;SDS011;63722;48.858;21.906;2023-03-05T13:36:21;1.33;;;1.33;;
57573;SDS011;63722;48.858;21.906;2023-03-05T13:38:48;3.35;;;1.30;;
57573;SDS011;63722;48.858;21.906;2023-03-05T13:46:08;1.45;;;1.35;;
57573;SDS011;63722;48.858;21.906;2023-03-05T13:48:33;1.17;;;1.17;;
57573;SDS011;63722;48.858;21.906;2023-03-05T13:50:58;1.20;;;1.20;;
57573;SDS011;63722;48.858;21.906;2023-03-05T13:53:25;1.23;;;1.13;;
57573;SDS011;63722;48.858;21.906;2023-03-05T13:55:59;1.05;;;1.05;;
57573;SDS011;63722;48.858;21.906;2023-03-05T14:06:29;1.13;;;1.13;;
57573;SDS011;63722;48.858;21.906;2023-03-05T14:09:05;1.13;;;1.13;;
57573;SDS011;63722;48.858;21.906;2023-03-05T14:11:41;1.05;;;1.05;;
57573;SDS011;63722;48.858;21.906;2023-03-05T14:14:13;1.40;;;1.30;;
57573;SDS011;63722;48.858;21.906;2023-03-05T14:16:41;1.05;;;1.05;;
57573;SDS011;63722;48.858;21.906;2023-03-05T14:19:23;1.30;;;1.20;;
57573;SDS011;63722;48.858;21.906;2023-03-05T14:21:56;0.98;;;0.98;;
57573;SDS011;63722;48.858;21.906;2023-03-05T14:24:22;1.20;;;1.20;;
57573;SDS011;63722;48.858;21.906;2023-03-05T14:26:52;1.00;;;1.00;;
57573;SDS011;63722;48.858;21.906;2023-03-05T14:29:22;1.58;;;0.93;;
57573;SDS011;63722;48.858;21.906;2023-03-05T14:31:55;1.23;;;1.23;;
57573;SDS011;63722;48.858;21.906;2023-03-05T14:34:28;0.90;;;0.90;;
57573;SDS011;63722;48.858;21.906;2023-03-05T14:36:55;0.98;;;0.98;;
57573;SDS011;63722;48.858;21.906;2023-03-05T14:41:55;1.35;;;1.05;;
57573;SDS011;63722;48.858;21.906;2023-03-05T14:44:48;0.90;;;0.90;;
57573;SDS011;63722;48.858;21.906;2023-03-05T14:47:13;1.23;;;1.23;;
57573;SDS011;63722;48.858;21.906;2023-03-05T14:49:39;1.10;;;1.10;;
57573;SDS011;63722;48.858;21.906;2023-03-05T14:52:04;1.45;;;1.40;;
57573;SDS011;63722;48.858;21.906;2023-03-05T14:54:31;1.10;;;1.10;;
57573;SDS011;63722;48.858;21.906;2023-03-05T14:57:02;1.10;;;1.10;;
57573;SDS011;63722;48.858;21.906;2023-03-05T14:59:29;0.90;;;0.90;;
57573;SDS011;63722;48.858;21.906;2023-03-05T15:01:54;1.02;;;1.02;;
57573;SDS011;63722;48.858;21.906;2023-03-05T15:04:21;1.30;;;1.30;;
57573;SDS011;63722;48.858;21.906;2023-03-05T15:06:47;0.90;;;0.90;;
57573;SDS011;63722;48.858;21.906;2023-03-05T15:09:15;1.10;;;1.10;;
57573;SDS011;63722;48.858;21.906;2023-03-05T15:11:45;1.10;;;1.10;;
57573;SDS011;63722;48.858;21.906;2023-03-05T15:14:12;1.23;;;1.13;;
57573;SDS011;63722;48.858;21.906;2023-03-05T15:16:38;0.90;;;0.90;;
57573;SDS011;63722;48.858;21.906;2023-03-05T15:19:09;1.02;;;1.02;;
57573;SDS011;63722;48.858;21.906;2023-03-05T15:21:36;1.05;;;1.05;;
57573;SDS011;63722;48.858;21.906;2023-03-05T15:24:02;0.98;;;0.98;;
57573;SDS011;63722;48.858;21.906;2023-03-05T15:26:27;0.88;;;0.88;;
57573;SDS011;63722;48.858;21.906;2023-03-05T15:28:53;1.20;;;1.20;;
57573;SDS011;63722;48.858;21.906;2023-03-05T15:31:18;1.10;;;1.10;;
57573;SDS011;63722;48.858;21.906;2023-03-05T15:33:43;0.95;;;0.95;;
57573;SDS011;63722;48.858;21.906;2023-03-05T15:36:09;0.90;;;0.90;;
57573;SDS011;63722;48.858;21.906;2023-03-05T15:38:34;1.08;;;1.08;;
57573;SDS011;63722;48.858;21.906;2023-03-05T15:41:02;1.10;;;1.10;;
57573;SDS011;63722;48.858;21.906;2023-03-05T15:43:28;0.90;;;0.90;;
57573;SDS011;63722;48.858;21.906;2023-03-05T15:45:54;1.10;;;1.10;;
57573;SDS011;63722;48.858;21.906;2023-03-05T15:48:20;0.90;;;0.90;;
57573;SDS011;63722;48.858;21.906;2023-03-05T15:50:45;0.85;;;0.85;;
57573;SDS011;63722;48.858;21.906;2023-03-05T15:53:11;1.00;;;1.00;;
57573;SDS011;63722;48.858;21.906;2023-03-05T15:55:42;1.20;;;1.20;;
57573;SDS011;63722;48.858;21.906;2023-03-05T15:58:12;0.80;;;0.80;;
57573;SDS011;63722;48.858;21.906;2023-03-05T16:00:38;1.30;;;1.00;;
57573;SDS011;63722;48.858;21.906;2023-03-05T16:03:04;1.13;;;1.13;;
57573;SDS011;63722;48.858;21.906;2023-03-05T16:05:31;1.10;;;1.10;;
57573;SDS011;63722;48.858;21.906;2023-03-05T16:07:58;1.00;;;1.00;;
57573;SDS011;63722;48.858;21.906;2023-03-05T16:10:24;0.98;;;0.98;;
57573;SDS011;63722;48.858;21.906;2023-03-05T16:13:10;1.10;;;1.10;;
57573;SDS011;63722;48.858;21.906;2023-03-05T16:15:38;0.90;;;0.90;;
57573;SDS011;63722;48.858;21.906;2023-03-05T16:18:05;1.00;;;1.00;;
57573;SDS011;63722;48.858;21.906;2023-03-05T16:20:34;1.02;;;1.00;;
57573;SDS011;63722;48.858;21.906;2023-03-05T16:23:00;1.20;;;1.20;;
57573;SDS011;63722;48.858;21.906;2023-03-05T16:25:28;1.00;;;1.00;;
57573;SDS011;63722;48.858;21.906;2023-03-05T16:27:53;0.95;;;0.95;;
57573;SDS011;63722;48.858;21.906;2023-03-05T16:30:18;1.17;;;1.08;;
57573;SDS011;63722;48.858;21.906;2023-03-05T16:32:44;0.90;;;0.90;;
57573;SDS011;63722;48.858;21.906;2023-03-05T16:35:09;1.13;;;1.13;;